< Typhoon 197906 1979 Season Typhoon 197908 >
Typhoon 197907 (FAYE)
General InformationTrack Information on Google MapsDetailed Wind InformationList of All Images || Disaster Info.ResourceGoogle EarthGE AnimationAtom FeedGeoJSON
Detalied Best Track (Time Zone = UTC)
Year Month Day Hour Lat. Long. Pressure (hPa) Wind (kt) Class Image Chart
1979 7 1 06 6.0 151.0 1004 0 2 Image Chart
1979 7 1 12 6.5 150.0 1002 0 2 Image Chart
1979 7 1 18 6.7 149.0 1000 0 2 Image Chart
1979 7 2 00 7.0 148.0 1000 0 2 Image Chart
1979 7 2 06 7.4 146.8 1000 0 2 Image Chart
1979 7 2 12 7.8 145.6 998 0 2 Image Chart
1979 7 2 18 8.3 144.5 996 0 2 Image Chart
1979 7 3 00 9.1 143.2 994 35 3 Image Chart
1979 7 3 06 9.5 142.2 994 40 3 Image Chart
1979 7 3 12 9.8 141.5 994 45 3 Image Chart
1979 7 3 18 10.0 140.8 994 45 3 Image Chart
1979 7 4 00 10.4 140.0 992 45 3 Image Chart
1979 7 4 06 10.5 139.0 992 45 3 Image Chart
1979 7 4 12 10.5 137.7 992 45 3 Image Chart
1979 7 4 18 10.3 136.5 992 45 3 Image Chart
1979 7 5 00 10.4 135.7 990 55 4 Image Chart
1979 7 5 06 11.0 135.6 990 50 4 Image Chart
1979 7 5 12 11.7 135.2 994 40 3 Image Chart
1979 7 5 18 12.4 134.6 996 35 3 Image Chart
1979 7 6 00 13.2 133.8 1000 0 2 Image Chart
1979 7 6 06 14.2 132.9 1000 0 2 Image Chart
1979 7 6 12 15.3 131.9 1002 0 2 Image Chart
1979 7 6 18 16.5 131.0 1004 0 2 Image Chart
1979 7 7 00 17.3 130.0 1004 0 2 Image Chart
1979 7 7 06 18.0 129.0 1004 0 2 Image Chart
1979 7 7 12 18.5 128.1 1004 0 2 Image Chart
1979 7 7 18 18.9 127.1 1004 0 2 Image Chart
1979 7 8 00 19.2 126.0 1004 0 2 Image Chart
1979 7 8 06 19.5 124.9 1004 0 2 Image Chart
1979 7 8 12 19.6 123.9 1004 0 2 Image Chart
1979 7 8 18 19.8 122.6 1004 0 2 Image Chart
1979 7 9 00 20.0 121.0 1004 0 2 Image Chart
1979 7 9 06 20.2 119.3 1004 0 2 Image Chart
1979 7 9 12 20.3 117.8 1004 0 2 Image Chart
1979 7 9 18 20.4 115.8 1004 0 2 Image Chart
Japan Meteorological Agency Best Track Data | Correction Date : 1992-10-21
< Typhoon 197906 1979 Season Typhoon 197908 >

Help